KFCM

Flying Cloud Airport

Minneapolis, Minnesota, USA
METAR KFCM 172053Z 30011G18KT 9SM CLR 09/M04 A3040 RMK AO2 SLP301 T00941044 56005
Observed Flight Rules
Oct-17 @ 20:53 UTC (14 minutes ago) Visual Flight Rules
Wind Visibility Clouds
300° at 11 knots
 Gusting to 18 knots
9 miles
  • Clear skies
Temperatures Readings
Current 9°C / 48°F
Dewpoint -4°C / 25°F
Humidity 40%
Altimeter 30.4" Hg
Pressure 1030.1 hPa
Elevation 280
METAR KFCM 172053Z 30011G18KT 9SM CLR 09/M04 A3040 RMK AO2 SLP301 T00941044 56005
Observed Flight Rules
Oct-17 @ 20:53 UTC
(14 minutes ago)
VFR
Wind Visibility
300° at 11 knots
 Gusting to 18 knots
9 miles
Clouds
  • Clear skies
Temperature Dewpoint
9°C / 48°F -4°C / 25°F
Humidity Altimeter Pressure
40% 30.4" Hg 1030.1 hPa